createdAt,value
2018-02-27T00:01:16.202Z,59.00
2018-02-27T00:03:43.906Z,59.10
2018-02-27T00:06:11.505Z,59.10
2018-02-27T00:08:39.121Z,59.10
2018-02-27T00:11:06.759Z,59.00
2018-02-27T00:13:35.141Z,59.00
2018-02-27T00:16:03.546Z,59.00
2018-02-27T00:18:31.138Z,58.90
2018-02-27T00:20:58.740Z,59.10
2018-02-27T00:23:27.143Z,59.10
2018-02-27T00:25:54.757Z,59.00
2018-02-27T00:28:23.900Z,59.20
2018-02-27T00:30:51.497Z,59.10
2018-02-27T00:33:19.106Z,59.10
2018-02-27T00:35:47.506Z,59.20
2018-02-27T00:38:15.097Z,59.60
2018-02-27T00:40:42.738Z,58.90
2018-02-27T00:43:10.332Z,59.00
2018-02-27T00:45:37.939Z,58.50
2018-02-27T00:48:05.592Z,59.00
2018-02-27T00:50:33.190Z,58.90
2018-02-27T00:53:00.831Z,59.00
2018-02-27T00:55:28.432Z,58.60
2018-02-27T00:57:56.034Z,58.10
2018-02-27T01:00:23.653Z,58.80
2018-02-27T01:02:51.268Z,59.00
2018-02-27T01:05:18.905Z,59.10
2018-02-27T01:07:47.266Z,59.00
2018-02-27T01:10:15.756Z,58.90
2018-02-27T01:12:44.141Z,58.70
2018-02-27T01:15:12.508Z,58.50
2018-02-27T01:17:40.912Z,58.80
2018-02-27T01:20:08.519Z,58.60
2018-02-27T01:22:36.118Z,58.30
2018-02-27T01:25:03.759Z,58.60
2018-02-27T01:27:32.865Z,58.90
2018-02-27T01:30:00.513Z,58.80
2018-02-27T01:32:28.122Z,59.50
2018-02-27T01:34:55.716Z,58.90
2018-02-27T01:37:23.332Z,58.90
2018-02-27T01:39:50.948Z,59.00
2018-02-27T01:42:18.579Z,58.90
2018-02-27T01:44:46.185Z,58.90
2018-02-27T01:47:13.786Z,58.50
2018-02-27T01:49:41.416Z,58.80
2018-02-27T01:52:09.805Z,59.30
2018-02-27T01:54:38.211Z,58.60
2018-02-27T01:57:05.822Z,58.50
2018-02-27T01:59:33.461Z,58.80
2018-02-27T02:02:01.062Z,58.90
2018-02-27T02:04:29.430Z,58.70
2018-02-27T02:06:59.473Z,58.60
2018-02-27T02:09:27.100Z,58.70
2018-02-27T02:11:54.741Z,58.60
2018-02-27T02:14:22.338Z,58.60
2018-02-27T02:16:49.941Z,58.50
2018-02-27T02:19:17.596Z,59.20
2018-02-27T02:21:45.193Z,58.60
2018-02-27T02:24:12.825Z,58.80
2018-02-27T02:26:40.418Z,58.90
2018-02-27T02:29:08.019Z,58.90
2018-02-27T02:31:36.448Z,59.10
2018-02-27T02:34:04.039Z,59.00
2018-02-27T02:36:32.455Z,59.00
2018-02-27T02:39:00.053Z,58.90
2018-02-27T02:41:27.686Z,59.20
2018-02-27T02:43:55.277Z,59.00
2018-02-27T02:46:22.865Z,59.20
2018-02-27T02:48:51.259Z,59.00
2018-02-27T02:51:19.625Z,58.60
2018-02-27T02:53:48.021Z,59.10
2018-02-27T02:56:15.615Z,59.00
2018-02-27T02:58:43.229Z,59.20
2018-02-27T03:01:11.620Z,59.20
2018-02-27T03:03:39.229Z,59.10
2018-02-27T03:06:06.850Z,59.00
2018-02-27T03:08:34.447Z,59.30
2018-02-27T03:11:02.069Z,59.00
2018-02-27T03:13:29.661Z,59.10
2018-02-27T03:15:57.285Z,59.20
2018-02-27T03:18:24.889Z,58.90
2018-02-27T03:20:52.524Z,59.00
2018-02-27T03:23:20.117Z,59.20
2018-02-27T03:25:47.720Z,59.10
2018-02-27T03:28:16.114Z,59.10
2018-02-27T03:30:43.722Z,59.10
2018-02-27T03:33:11.355Z,58.90
2018-02-27T03:35:38.957Z,58.30
2018-02-27T03:38:06.584Z,58.00
2018-02-27T03:40:34.181Z,58.00
2018-02-27T03:43:02.573Z,57.80
2018-02-27T03:45:30.937Z,58.50
2018-02-27T03:47:58.572Z,58.40
2018-02-27T03:50:26.174Z,58.50
2018-02-27T03:52:54.537Z,59.10
2018-02-27T03:55:22.168Z,59.00
2018-02-27T03:57:49.757Z,59.30
2018-02-27T04:00:17.391Z,58.60
2018-02-27T04:02:44.985Z,59.10
2018-02-27T04:05:12.621Z,59.00
2018-02-27T04:07:40.246Z,59.70
2018-02-27T04:10:07.935Z,59.60
2018-02-27T04:12:35.553Z,59.30
2018-02-27T04:15:03.924Z,59.50
2018-02-27T04:17:32.308Z,59.60
2018-02-27T04:20:00.761Z,59.60
2018-02-27T04:22:28.391Z,59.60
2018-02-27T04:24:56.004Z,59.70
2018-02-27T04:27:24.393Z,59.80
2018-02-27T04:29:52.757Z,59.70
2018-02-27T04:32:21.149Z,59.70
2018-02-27T04:34:49.527Z,59.80
2018-02-27T04:37:17.925Z,59.70
2018-02-27T04:39:45.534Z,59.70
2018-02-27T04:42:13.129Z,59.70
2018-02-27T04:44:40.786Z,59.80
2018-02-27T04:47:08.403Z,59.80
2018-02-27T04:49:36.012Z,59.50
2018-02-27T04:52:03.642Z,59.70
2018-02-27T04:54:32.793Z,59.70
2018-02-27T04:57:00.388Z,59.60
2018-02-27T04:59:27.984Z,59.60
2018-02-27T05:01:56.383Z,59.50
2018-02-27T05:04:23.983Z,59.40
2018-02-27T05:06:51.615Z,59.40
2018-02-27T05:09:19.297Z,59.70
2018-02-27T05:11:46.903Z,59.90
2018-02-27T05:14:14.569Z,59.70
2018-02-27T05:16:42.173Z,59.50
2018-02-27T05:19:09.804Z,59.60
2018-02-27T05:21:37.402Z,59.50
2018-02-27T05:24:05.039Z,59.60
2018-02-27T05:26:32.657Z,59.60
2018-02-27T05:29:00.277Z,59.80
2018-02-27T05:31:27.890Z,59.10
2018-02-27T05:33:56.301Z,59.40
2018-02-27T05:36:23.893Z,59.40
2018-02-27T05:38:51.544Z,59.40
2018-02-27T05:41:19.143Z,59.50
2018-02-27T05:43:46.749Z,59.50
2018-02-27T05:46:14.384Z,59.60
2018-02-27T05:48:41.989Z,59.50
2018-02-27T05:51:09.650Z,59.60
2018-02-27T05:53:37.260Z,59.40
2018-02-27T05:56:05.660Z,59.50
2018-02-27T05:58:33.281Z,59.40
2018-02-27T06:01:00.921Z,59.40
2018-02-27T06:03:28.536Z,59.50
2018-02-27T06:05:56.131Z,59.20
2018-02-27T06:08:23.762Z,59.50
2018-02-27T06:10:51.369Z,59.40
2018-02-27T06:13:19.002Z,59.00
2018-02-27T06:15:46.624Z,58.90
2018-02-27T06:18:15.010Z,58.80
2018-02-27T06:20:43.385Z,58.70
2018-02-27T06:23:11.788Z,58.90
2018-02-27T06:25:39.392Z,58.80
2018-02-27T06:28:07.037Z,58.70
2018-02-27T06:30:34.742Z,58.70
2018-02-27T06:33:03.104Z,58.80
2018-02-27T06:35:31.500Z,58.80
2018-02-27T06:37:59.864Z,58.90
2018-02-27T06:40:27.497Z,58.40
2018-02-27T06:42:55.088Z,58.70
2018-02-27T06:45:22.720Z,58.50
2018-02-27T06:47:50.318Z,59.40
2018-02-27T06:50:18.733Z,58.30
2018-02-27T06:52:46.345Z,58.30
2018-02-27T06:55:13.997Z,58.60
2018-02-27T06:57:41.591Z,58.70
2018-02-27T07:00:09.988Z,58.80
2018-02-27T07:02:37.580Z,58.70
2018-02-27T07:05:05.214Z,58.70
2018-02-27T07:07:32.809Z,60.00
2018-02-27T07:10:00.446Z,58.90
2018-02-27T07:12:28.032Z,58.40
2018-02-27T07:14:55.650Z,58.40
2018-02-27T07:17:23.237Z,59.20
2018-02-27T07:19:50.868Z,59.20
2018-02-27T07:22:18.468Z,59.70
2018-02-27T07:24:46.084Z,59.20
2018-02-27T07:27:13.750Z,58.90
2018-02-27T07:29:42.112Z,58.90
2018-02-27T07:32:10.513Z,59.20
2018-02-27T07:34:38.117Z,59.10
2018-02-27T07:37:05.749Z,59.70
2018-02-27T07:39:33.352Z,59.50
2018-02-27T07:42:01.829Z,59.60
2018-02-27T07:44:29.433Z,59.50
2018-02-27T07:46:57.062Z,59.60
2018-02-27T07:49:24.660Z,58.80
2018-02-27T07:51:52.301Z,60.00
2018-02-27T07:54:20.689Z,60.00
2018-02-27T07:56:48.289Z,59.90
2018-02-27T07:59:15.929Z,60.40
2018-02-27T08:01:43.547Z,61.80
2018-02-27T08:04:12.023Z,60.30
2018-02-27T08:06:39.584Z,60.20
2018-02-27T08:09:07.215Z,61.10
2018-02-27T08:11:34.837Z,61.90
2018-02-27T08:14:02.441Z,62.50
2018-02-27T08:16:30.073Z,61.80
2018-02-27T08:18:57.671Z,61.50
2018-02-27T08:21:26.093Z,62.00
2018-02-27T08:23:54.470Z,62.70
2018-02-27T08:26:22.877Z,62.90
2018-02-27T08:28:50.507Z,62.90
2018-02-27T08:31:18.918Z,62.40
2018-02-27T08:33:46.539Z,62.40
2018-02-27T08:36:14.953Z,62.40
2018-02-27T08:38:42.604Z,62.30
2018-02-27T08:41:10.198Z,62.80
2018-02-27T08:43:37.831Z,62.80
2018-02-27T08:46:05.429Z,62.30
2018-02-27T08:48:33.053Z,62.30
2018-02-27T08:51:00.737Z,63.10
2018-02-27T08:53:29.176Z,63.20
2018-02-27T08:55:57.536Z,64.30
2018-02-27T08:58:25.941Z,65.00
2018-02-27T09:00:53.540Z,64.90
2018-02-27T09:03:21.174Z,65.20
2018-02-27T09:05:48.784Z,66.10
2018-02-27T09:08:16.382Z,66.00
2018-02-27T09:10:44.776Z,67.00
2018-02-27T09:13:12.413Z,67.00
2018-02-27T09:15:40.956Z,66.30
2018-02-27T09:18:08.601Z,66.20
2018-02-27T09:20:36.231Z,66.60
2018-02-27T09:23:03.833Z,66.10
2018-02-27T09:25:31.755Z,67.10
2018-02-27T09:27:59.537Z,66.30
2018-02-27T09:30:27.546Z,66.30
2018-02-27T09:32:55.407Z,66.50
2018-02-27T09:35:23.001Z,65.70
2018-02-27T09:37:51.465Z,65.60
2018-02-27T09:40:19.144Z,65.60
2018-02-27T09:42:47.685Z,65.70
2018-02-27T09:45:15.474Z,65.60
2018-02-27T09:47:43.093Z,64.90
2018-02-27T09:50:10.697Z,65.50
2018-02-27T09:52:38.465Z,66.10
2018-02-27T09:55:06.057Z,64.90
2018-02-27T09:57:33.877Z,64.60
2018-02-27T10:00:01.577Z,65.00
2018-02-27T10:02:30.049Z,65.60
2018-02-27T10:04:58.614Z,66.00
2018-02-27T10:07:26.369Z,65.70
2018-02-27T10:09:54.232Z,65.90
2018-02-27T10:12:21.888Z,65.80
2018-02-27T10:14:49.681Z,66.10
2018-02-27T10:17:18.053Z,65.00
2018-02-27T10:19:45.675Z,64.80
2018-02-27T10:22:13.363Z,64.70
2018-02-27T10:24:41.007Z,65.20
2018-02-27T10:27:08.588Z,65.50
2018-02-27T10:29:36.172Z,65.10
2018-02-27T10:32:04.566Z,66.00
2018-02-27T10:34:32.992Z,64.80
2018-02-27T10:37:00.612Z,64.80
2018-02-27T10:39:28.254Z,64.00
2018-02-27T10:41:56.662Z,65.10
2018-02-27T10:44:24.266Z,64.20
2018-02-27T10:46:51.928Z,64.50
2018-02-27T10:49:19.529Z,64.70
2018-02-27T10:51:47.916Z,64.80
2018-02-27T10:54:15.534Z,64.70
2018-02-27T10:56:43.129Z,65.50
2018-02-27T10:59:11.674Z,64.20
2018-02-27T11:01:39.316Z,64.20
2018-02-27T11:04:07.125Z,62.50
2018-02-27T11:06:35.507Z,64.00
2018-02-27T11:09:03.888Z,64.50
2018-02-27T11:11:32.252Z,64.40
2018-02-27T11:13:59.942Z,64.20
2018-02-27T11:16:27.568Z,64.60
2018-02-27T11:18:55.166Z,65.00
2018-02-27T11:21:22.788Z,64.90
2018-02-27T11:23:50.396Z,64.20
2018-02-27T11:26:18.007Z,63.50
2018-02-27T11:28:47.103Z,64.40
2018-02-27T11:31:14.739Z,64.30
2018-02-27T11:33:42.332Z,63.50
2018-02-27T11:36:10.786Z,63.50
2018-02-27T11:38:38.559Z,64.10
2018-02-27T11:41:06.428Z,63.00
2018-02-27T11:43:34.407Z,64.30
2018-02-27T11:46:03.797Z,65.10
2018-02-27T11:48:31.671Z,65.10
2018-02-27T11:51:00.969Z,64.40
2018-02-27T11:53:28.833Z,63.50
2018-02-27T11:55:57.418Z,64.10
2018-02-27T11:58:25.281Z,64.10
2018-02-27T12:00:53.112Z,65.00
2018-02-27T12:03:20.909Z,64.90
2018-02-27T12:05:48.781Z,64.60
2018-02-27T12:08:16.630Z,64.20
2018-02-27T12:10:45.279Z,64.20
2018-02-27T12:13:14.427Z,64.00
2018-02-27T12:15:42.598Z,63.80
2018-02-27T12:18:10.571Z,64.40
2018-02-27T12:20:38.535Z,64.60
2018-02-27T12:23:06.411Z,64.80
2018-02-27T12:25:34.340Z,64.70
2018-02-27T12:28:02.210Z,64.70
2018-02-27T12:30:30.001Z,64.30
2018-02-27T12:32:57.837Z,64.30
2018-02-27T12:35:25.740Z,64.30
2018-02-27T12:37:53.711Z,63.80
2018-02-27T12:40:22.409Z,63.20
2018-02-27T12:42:50.329Z,63.00
2018-02-27T12:45:18.236Z,63.00
2018-02-27T12:47:46.093Z,63.60
2018-02-27T12:50:13.871Z,63.50
2018-02-27T12:52:42.329Z,63.60
2018-02-27T12:55:09.955Z,63.50
2018-02-27T12:57:37.766Z,63.40
2018-02-27T13:00:05.534Z,63.90
2018-02-27T13:02:34.020Z,63.30
2018-02-27T13:05:02.477Z,63.50
2018-02-27T13:07:30.205Z,63.60
2018-02-27T13:09:57.907Z,62.90
2018-02-27T13:12:25.646Z,62.70
2018-02-27T13:14:53.333Z,62.30
2018-02-27T13:17:21.016Z,62.80
2018-02-27T13:19:48.732Z,63.10
2018-02-27T13:22:16.533Z,63.30
2018-02-27T13:24:44.329Z,63.40
2018-02-27T13:27:12.687Z,63.60
2018-02-27T13:29:40.447Z,63.50
2018-02-27T13:32:08.300Z,63.20
2018-02-27T13:34:36.090Z,62.70
2018-02-27T13:37:04.517Z,62.80
2018-02-27T13:39:32.198Z,62.70
2018-02-27T13:41:59.860Z,62.00
2018-02-27T13:44:27.646Z,62.50
2018-02-27T13:46:55.411Z,62.10
2018-02-27T13:49:25.039Z,62.30
2018-02-27T13:51:50.953Z,62.70
2018-02-27T13:54:18.830Z,62.50
2018-02-27T13:56:46.678Z,63.20
2018-02-27T13:59:14.453Z,63.30
2018-02-27T14:01:42.303Z,63.50
2018-02-27T14:04:10.168Z,63.10
2018-02-27T14:06:37.916Z,62.80
2018-02-27T14:09:05.784Z,62.50
2018-02-27T14:11:33.464Z,61.00
2018-02-27T14:14:01.241Z,61.40
2018-02-27T14:16:29.497Z,62.20
2018-02-27T14:18:58.188Z,61.90
2018-02-27T14:21:26.018Z,61.80
2018-02-27T14:23:53.835Z,63.00
2018-02-27T14:26:22.281Z,63.00
2018-02-27T14:28:50.006Z,63.10
2018-02-27T14:31:17.746Z,63.80
2018-02-27T14:33:46.912Z,62.70
2018-02-27T14:36:14.688Z,62.70
2018-02-27T14:38:42.359Z,61.60
2018-02-27T14:41:09.994Z,63.60
2018-02-27T14:43:37.680Z,62.70
2018-02-27T14:46:05.442Z,63.60
2018-02-27T14:48:33.198Z,63.20
2018-02-27T14:51:00.998Z,62.30
2018-02-27T14:53:29.448Z,63.10
2018-02-27T14:55:57.313Z,63.00
2018-02-27T14:58:25.793Z,59.90
2018-02-27T15:00:53.429Z,60.50
2018-02-27T15:03:21.203Z,60.80
2018-02-27T15:05:48.802Z,59.70
2018-02-27T15:08:16.534Z,58.60
2018-02-27T15:10:44.251Z,58.80
2018-02-27T15:13:11.958Z,59.30
2018-02-27T15:15:39.597Z,58.80
2018-02-27T15:18:07.305Z,60.40
2018-02-27T15:20:35.758Z,58.70
2018-02-27T15:23:03.375Z,58.70
2018-02-27T15:25:31.103Z,58.10
2018-02-27T15:27:58.794Z,59.00
2018-02-27T15:30:27.350Z,58.60
2018-02-27T15:32:55.034Z,58.50
2018-02-27T15:35:23.393Z,58.90
2018-02-27T15:37:51.139Z,58.90
2018-02-27T15:40:18.732Z,59.20
2018-02-27T15:42:47.169Z,60.40
2018-02-27T15:45:14.783Z,60.20
2018-02-27T15:47:43.260Z,59.30
2018-02-27T15:50:11.621Z,57.80
2018-02-27T15:52:39.375Z,57.60
2018-02-27T15:55:07.049Z,55.90
2018-02-27T15:57:34.751Z,57.30
2018-02-27T16:00:02.448Z,58.40
2018-02-27T16:02:30.097Z,57.80
2018-02-27T16:04:57.773Z,56.20
2018-02-27T16:07:25.405Z,56.30
2018-02-27T16:09:53.126Z,56.30
2018-02-27T16:12:20.841Z,58.00
2018-02-27T16:14:48.740Z,56.20
2018-02-27T16:17:16.534Z,55.80
2018-02-27T16:19:45.081Z,54.80
2018-02-27T16:22:12.680Z,54.70
2018-02-27T16:24:40.436Z,54.90
2018-02-27T16:27:08.841Z,55.20
2018-02-27T16:29:36.530Z,55.10
2018-02-27T16:32:04.205Z,55.00
2018-02-27T16:34:31.898Z,55.40
2018-02-27T16:37:00.078Z,54.80
2018-02-27T16:39:28.461Z,55.10
2018-02-27T16:41:56.912Z,55.30
2018-02-27T16:44:24.668Z,55.30
2018-02-27T16:46:52.325Z,54.50
2018-02-27T16:49:20.107Z,55.20
2018-02-27T16:51:47.880Z,55.60
2018-02-27T16:54:16.447Z,56.00
2018-02-27T16:56:44.095Z,56.00
2018-02-27T16:59:11.767Z,55.80
2018-02-27T17:01:39.541Z,56.50
2018-02-27T17:04:07.313Z,56.20
2018-02-27T17:06:35.777Z,56.90
2018-02-27T17:09:03.541Z,56.90
2018-02-27T17:11:31.320Z,58.60
2018-02-27T17:13:58.960Z,57.90
2018-02-27T17:16:26.826Z,58.80
2018-02-27T17:18:54.424Z,59.20
2018-02-27T17:21:22.153Z,59.90
2018-02-27T17:23:49.931Z,58.50
2018-02-27T17:26:17.682Z,58.80
2018-02-27T17:28:45.310Z,58.60
2018-02-27T17:31:13.116Z,58.70
2018-02-27T17:33:44.102Z,58.80
2018-02-27T17:36:14.061Z,58.30
2018-02-27T17:38:43.455Z,58.20
2018-02-27T17:41:12.435Z,59.20
2018-02-27T17:43:42.990Z,59.40
2018-02-27T17:46:12.938Z,59.40
2018-02-27T17:48:43.781Z,59.40
2018-02-27T17:51:13.831Z,59.40
2018-02-27T17:53:41.745Z,59.60
2018-02-27T17:56:09.603Z,59.10
2018-02-27T17:58:39.450Z,59.60
2018-02-27T18:01:09.319Z,59.80
2018-02-27T18:03:39.383Z,59.80
2018-02-27T18:06:07.968Z,59.80
2018-02-27T18:08:38.311Z,59.40
2018-02-27T18:11:08.769Z,59.20
2018-02-27T18:13:39.785Z,58.10
2018-02-27T18:16:10.294Z,59.00
2018-02-27T18:18:39.003Z,59.00
2018-02-27T18:21:10.023Z,59.40
2018-02-27T18:23:40.127Z,59.40
2018-02-27T18:26:09.925Z,60.50
2018-02-27T18:28:37.984Z,60.30
2018-02-27T18:31:05.864Z,61.30
2018-02-27T18:33:36.605Z,61.10
2018-02-27T18:36:07.563Z,61.50
2018-02-27T18:38:37.729Z,61.40
2018-02-27T18:41:06.527Z,61.70
2018-02-27T18:43:35.903Z,60.80
2018-02-27T18:46:05.540Z,61.40
2018-02-27T18:48:34.889Z,58.90
2018-02-27T18:51:04.570Z,59.00
2018-02-27T18:53:35.465Z,61.40
2018-02-27T18:56:04.450Z,61.40
2018-02-27T18:58:33.275Z,63.00
2018-02-27T19:01:01.144Z,62.80
2018-02-27T19:03:29.010Z,62.00
2018-02-27T19:05:56.875Z,61.90
2018-02-27T19:08:24.753Z,62.50
2018-02-27T19:10:52.712Z,61.30
2018-02-27T19:13:20.583Z,62.50
2018-02-27T19:15:48.449Z,63.50
2018-02-27T19:18:18.203Z,62.00
2018-02-27T19:20:48.637Z,61.20
2018-02-27T19:23:17.952Z,61.20
2018-02-27T19:25:45.950Z,60.80
2018-02-27T19:28:13.924Z,62.90
2018-02-27T19:30:43.330Z,61.50
2018-02-27T19:33:11.193Z,61.50
2018-02-27T19:35:39.178Z,61.60
2018-02-27T19:38:07.024Z,61.30
2018-02-27T19:40:34.801Z,62.00
2018-02-27T19:43:02.664Z,62.70
2018-02-27T19:45:31.243Z,63.20
2018-02-27T19:47:59.032Z,63.20
2018-02-27T19:50:27.648Z,63.40
2018-02-27T19:52:55.569Z,63.40
2018-02-27T19:55:23.423Z,61.40
2018-02-27T19:57:51.291Z,62.50
2018-02-27T20:00:19.132Z,60.70
2018-02-27T20:02:47.028Z,61.00
2018-02-27T20:05:14.951Z,61.10
2018-02-27T20:07:42.764Z,63.00
2018-02-27T20:10:10.634Z,63.90
2018-02-27T20:12:39.272Z,63.60
2018-02-27T20:15:07.174Z,63.60
2018-02-27T20:17:35.043Z,63.40
2018-02-27T20:20:02.910Z,63.60
2018-02-27T20:22:36.468Z,62.20
2018-02-27T20:25:04.384Z,60.70
2018-02-27T20:27:33.069Z,62.80
2018-02-27T20:30:02.327Z,62.10
2018-02-27T20:32:30.234Z,62.00
2018-02-27T20:34:57.999Z,63.10
2018-02-27T20:37:25.922Z,62.20
2018-02-27T20:39:53.733Z,61.90
2018-02-27T20:42:21.592Z,60.70
2018-02-27T20:44:49.468Z,60.80
2018-02-27T20:47:17.331Z,61.30
2018-02-27T20:49:45.198Z,60.10
2018-02-27T20:52:13.025Z,60.50
2018-02-27T20:54:40.931Z,62.00
2018-02-27T20:57:08.793Z,61.60
2018-02-27T20:59:36.668Z,60.50
2018-02-27T21:02:04.638Z,59.50
2018-02-27T21:04:32.506Z,60.20
2018-02-27T21:07:01.904Z,61.90
2018-02-27T21:09:29.670Z,61.80
2018-02-27T21:11:57.486Z,61.00
2018-02-27T21:14:25.297Z,60.90
2018-02-27T21:16:53.165Z,60.50
2018-02-27T21:19:20.766Z,61.10
2018-02-27T21:21:49.167Z,62.70
2018-02-27T21:24:16.810Z,62.60
2018-02-27T21:26:45.198Z,60.20
2018-02-27T21:29:12.813Z,60.20
2018-02-27T21:31:40.452Z,62.00
2018-02-27T21:34:08.060Z,62.00
2018-02-27T21:36:36.466Z,61.60
2018-02-27T21:39:04.099Z,61.50
2018-02-27T21:41:32.468Z,58.50
2018-02-27T21:44:00.102Z,58.50
2018-02-27T21:46:27.764Z,59.40
2018-02-27T21:48:55.424Z,59.80
2018-02-27T21:51:23.025Z,60.50
2018-02-27T21:53:51.400Z,59.70
2018-02-27T21:56:19.793Z,60.20
2018-02-27T21:58:47.397Z,60.00
2018-02-27T22:01:15.037Z,61.30
2018-02-27T22:03:43.500Z,60.10
2018-02-27T22:06:11.126Z,60.50
2018-02-27T22:08:38.736Z,59.40
2018-02-27T22:11:06.365Z,59.20
2018-02-27T22:13:34.737Z,59.30
2018-02-27T22:16:02.368Z,58.70
2018-02-27T22:18:29.969Z,59.20
2018-02-27T22:20:58.519Z,60.60
2018-02-27T22:23:26.135Z,60.60
2018-02-27T22:25:53.826Z,59.90
2018-02-27T22:28:21.461Z,60.40
2018-02-27T22:30:49.288Z,60.00
2018-02-27T22:33:17.686Z,59.60
2018-02-27T22:35:46.056Z,59.20
2018-02-27T22:38:14.450Z,58.90
2018-02-27T22:40:42.067Z,58.80
2018-02-27T22:43:09.678Z,59.60
2018-02-27T22:45:37.322Z,59.30
2018-02-27T22:48:05.696Z,57.90
2018-02-27T22:50:34.097Z,59.00
2018-02-27T22:53:01.805Z,58.90
2018-02-27T22:55:30.201Z,59.60
2018-02-27T22:57:57.936Z,58.90
2018-02-27T23:00:36.520Z,57.10
2018-02-27T23:03:04.148Z,56.90
2018-02-27T23:05:33.013Z,58.30
2018-02-27T23:08:01.396Z,58.60
2018-02-27T23:10:29.045Z,58.60
2018-02-27T23:12:56.689Z,59.50
2018-02-27T23:15:24.351Z,59.50
2018-02-27T23:17:51.950Z,59.40
2018-02-27T23:20:19.553Z,59.90
2018-02-27T23:22:47.216Z,58.10
2018-02-27T23:25:19.522Z,57.90
2018-02-27T23:27:48.012Z,57.80
2018-02-27T23:30:16.688Z,57.70
2018-02-27T23:32:48.201Z,58.80
2018-02-27T23:35:24.748Z,58.90
2018-02-27T23:37:53.171Z,59.90
2018-02-27T23:40:20.865Z,59.20
2018-02-27T23:42:48.464Z,59.90
2018-02-27T23:45:16.902Z,58.10
2018-02-27T23:47:44.562Z,58.00
2018-02-27T23:50:12.260Z,58.00
2018-02-27T23:52:40.777Z,59.60
2018-02-27T23:55:08.480Z,59.50
2018-02-27T23:57:36.138Z,59.20
